Página principal
METAR-TAF:

METAR-TAF

Aeroportos :

Aeroporto Internacional do Cairo

Cairo, Egipto

latitude: 30-08N, longitude: 031-24E, altura: 64 m

Observação actual do tempo

O boletim foi feito há 33 minutos, às 21:00 UTC
Vento 4 kt de este
Temperatura 16°C
Humidade 45%
Pressão 1018 hPa
Visibilidade 10 km ou mais
sem nuvens abaixo de 1500 metros e sem cumulonimbus

METAR: HECA 202100Z 10004KT CAVOK 16/04 Q1018 NOSIG

Hora: 23:33 (21:33 UTC)

Previsão

O boletim foi feito há 4 horas e 33 minutos, às 17:00 UTC
Previsão válida de 20 às 18 UTC a 21 às 24 UTC
Vento 9 kt de nordeste
Visibilidade 10 km ou mais
sem nuvens abaixo de 1500 metros e sem cumulonimbus

TAF: HECA 201700Z 2018/2124 04009KT CAVOK

Observações e previsões do tempo de mais de 4000 aeroportos (mensagens METAR e TAF).

As estações disponíveis são os pontos amarelos e vermelhos sobre o mapa.

Mova o rato sobre o mapa para ver o nome da estação.

Depois clique no ponto para visualizar as observações e previsões meteorológicas.

Para alterar o mapa : clique nos botões verdes com uma cruz preta para aumentar o zoom; no botão verde com uma pitada de zoom; ou nas setas verdes para mapas adjacentes.


METAR-TAF: